الصفحة الرئيسية
METAR-TAF:

METAR-TAF

مطار :

كيتاكيوشو, اليابان

دائرة عرض: 33-50N, خط طول: 130-57E, ارتفاع: 3 متر

مراقبة الطقس الحالي

تاريخ ووقت الإصدار 1ساعة و 14 دقيقة قبل الساعة 01:00UTC
ريح 3 عقدة من الجنوب/الجنوب الغربي
درجة الحرارة 27°درجة مئوية
الرطوبة 70%
ضغط 1010 hPa
الرؤية 10 كم أو أكثر
غيوم قليلة على ارتفاع 2500 قدم
غيوم متفرقة على ارتفاع 3500 قدم
ملبد بالغيوم على ارتفاع 14000 قدم

METAR: RJFR 250100Z 21003KT 9999 FEW025 SCT035 OVC140 27/21 Q1010

زمن: 11:14 (02:14 UTC)

توقعات

تاريخ ووقت الإصدار 3ساعات و 7 دقيقة قبل الساعة 23:07UTC
التوقعات صالحة من25 الساعة 00 UTC إلى 26 الساعة 06 UTC
ريح 4 عقدة من الشرق
الرؤية: 8000 متر
غيوم قليلة على ارتفاع 2000 قدم
غيوم متفرقة على ارتفاع 3000 قدم
مطر خفيف
أصبح
من 25 الساعة 02 UTC إلى 25 الساعة 04 UTC
ريح 7 عقدة من الغرب
أصبح
من 25 الساعة 08 UTC إلى 25 الساعة 10 UTC
ريح 6 عقدة من الجنوب الغربي

TAF: RJFR 242307Z 2500/2606 10004KT 8000 -RA FEW020 SCT030 BECMG 2502/2504 28007KT BECMG 2508/2510 23006KT

أرصاد الطقس والتوقعات من أكثر من 4000 مطار (تقارير الطقس للمطار METAR والتنبؤ بالطقس بالمطارTAF).

المحطات المتاحة هي النقط الصفراء والحمراء على الخريطة.

حرك المؤشر فوق النقطة لمعرفة اسم المحطة.

ثم انقر لمعرفة أرصاد وتوقعات الطقس.

لتغيير الخارطة: اضغط على الأزرار الخضراء مع رمز الصليب الأسود للتكبير. على الزر الأخضر مع شرطة للتصغير، أو على الأسهم الخضراء للخرائط المجاورة.


METAR-TAF: